Borja — ICEC — position and weather

sailwx.info

Track history (hours):
 
Tides and Currents Weather Stations Pressure Air Temp Water Temp Dewpoint Dewpoint Depression Visibility Wind Speed Wind Dir Waves Ship Positions

Borja

Last reported at 2014-Nov-28 16:33 UTC. Time now 2014-Nov-28 18:12 UTC.
Position N 36°00' W 005°26'.

Length 186 m; draft 5.8 m.

Type: Ship. MMSI: 247196400.

Date/timePositionNaut miles runAvg speedWind from/ knotsBaromVisibWave heightAir tempDewpointWater temp
2014-Nov-28 16:33N 36°00' W 005°26'8 7.9
2014-Nov-28 15:33N 36°08' W 005°26'0 0.0
2014-Nov-28 14:32N 36°08' W 005°26'0 0.0
2014-Nov-28 13:33N 36°08' W 005°26'2 2.0
2014-Nov-28 12:33N 36°08' W 005°24'12 1.6
2014-Nov-28 05:33N 35°57' W 005°29'1110.4
2014-Nov-28 04:31N 36°08' W 005°26'0 0.0
2014-Nov-28 03:31N 36°08' W 005°26'0 0.0
2014-Nov-28 02:31N 36°08' W 005°26'0 0.0
2014-Nov-28 01:33N 36°08' W 005°26'0 0.0
2014-Nov-28 00:33N 36°08' W 005°26'7 6.6
2014-Nov-27 23:34N 36°02' W 005°24'7 1.1
2014-Nov-27 17:08N 35°56' W 005°30'1017.0
2014-Nov-27 16:33N 36°05' W 005°24'4 3.4
2014-Nov-27 15:28N 36°08' W 005°26'0 0.0
2014-Nov-27 14:33N 36°08' W 005°26'0 0.0
2014-Nov-27 13:33N 36°08' W 005°26'2 1.9
2014-Nov-27 12:33N 36°09' W 005°24'13 2.5
2014-Nov-27 07:25N 35°56' W 005°30'1315.3
2014-Nov-27 06:34N 36°09' W 005°26'1 1.1
2014-Nov-27 05:33N 36°08' W 005°26'1 1.2
2014-Nov-27 04:31N 36°09' W 005°25'1212.1
2014-Nov-27 03:33N 35°57' W 005°27'2 0.8
2014-Nov-27 00:33N 35°60' W 005°26'8 3.6
2014-Nov-26 22:19N 36°08' W 005°26'0 0.0
2014-Nov-26 21:24N 36°08' W 005°26'2 2.2
2014-Nov-26 20:33N 36°08' W 005°24'12 2.9
2014-Nov-26 16:13N 35°56' W 005°30'1116.9
2014-Nov-26 15:34N 36°06' W 005°23'3 2.4
2014-Nov-26 14:14N 36°08' W 005°26'0 0.0
2014-Nov-26 13:33N 36°08' W 005°26'0 0.2
2014-Nov-26 12:33N 36°08' W 005°26'1010.5
2014-Nov-26 11:33N 35°58' W 005°26'3 0.6
2014-Nov-26 06:25N 35°56' W 005°30'1214.1
2014-Nov-26 05:33N 36°08' W 005°26'0 0.2
2014-Nov-26 04:33N 36°08' W 005°26'0 0.0
2014-Nov-26 03:33N 36°08' W 005°26'2 1.7
2014-Nov-26 02:33N 36°08' W 005°24'12 3.8
2014-Nov-25 23:17N 35°57' W 005°30'1115.8
2014-Nov-25 22:34N 36°07' W 005°24'2 1.9
2014-Nov-25 21:28N 36°08' W 005°26'0 0.0
2014-Nov-25 20:31N 36°08' W 005°26'1 1.4
2014-Nov-25 19:31N 36°09' W 005°25'1212.9
2014-Nov-25 18:33N 35°57' W 005°28'4 1.3
2014-Nov-25 15:34N 35°58' W 005°33'1211.5
2014-Nov-25 14:32N 36°08' W 005°26'0 0.3
2014-Nov-25 13:31N 36°08' W 005°26'0 0.4
2014-Nov-25 12:32N 36°08' W 005°26'1212.2
2014-Nov-25 11:33N 35°57' W 005°28'1 0.3
2014-Nov-25 06:33N 35°58' W 005°29'1010.2
2014-Nov-25 05:33N 36°08' W 005°26'0 0.0
2014-Nov-25 04:34N 36°08' W 005°26'0 0.0
2014-Nov-25 03:33N 36°08' W 005°26'3 2.9
2014-Nov-25 02:33N 36°07' W 005°23'12 2.9
2014-Nov-24 22:30N 35°56' W 005°30'1313.4
2014-Nov-24 21:33N 36°09' W 005°26'1 0.6
2014-Nov-24 20:28N 36°08' W 005°26'0 0.2
2014-Nov-24 19:34N 36°08' W 005°26'10 9.9
2014-Nov-24 18:33N 35°58' W 005°26'3 1.0
2014-Nov-24 15:19N 35°56' W 005°30'1317.1
2014-Nov-24 14:34N 36°09' W 005°25'1 1.0
2014-Nov-24 13:23N 36°08' W 005°26'1 0.6
2014-Nov-24 12:33N 36°08' W 005°26'1111.3
2014-Nov-24 11:33N 35°57' W 005°27'3 0.5
2014-Nov-24 06:07N 35°56' W 005°31'915.6
2014-Nov-24 05:33N 36°03' W 005°24'5 3.8
2014-Nov-24 04:13N 36°08' W 005°26'0 0.0
2014-Nov-24 03:13N 36°08' W 005°26'0 0.4
2014-Nov-24 02:33N 36°08' W 005°26'9 9.5
2014-Nov-24 01:33N 35°59' W 005°25'5 1.6
2014-Nov-23 22:31N 35°56' W 005°30'1212.9
2014-Nov-23 21:33N 36°08' W 005°26'0 0.2
2014-Nov-23 20:31N 36°08' W 005°26'0 0.3
2014-Nov-23 19:33N 36°08' W 005°26'1110.6
2014-Nov-23 18:34N 35°58' W 005°27'2 0.8
2014-Nov-23 15:33N 35°56' W 005°29'1211.7
2014-Nov-23 14:33N 36°08' W 005°26'0 0.0
2014-Nov-23 13:33N 36°08' W 005°26'0 0.0
2014-Nov-23 12:33N 36°08' W 005°26'0 0.2
2014-Nov-23 10:28N 36°08' W 005°26'0 0.0
2014-Nov-22 17:23N 36°08' W 005°26'0 0.0
2014-Nov-22 16:33N 36°08' W 005°26'0 0.3
2014-Nov-22 15:33N 36°08' W 005°26'0 0.0
2014-Nov-22 14:33N 36°08' W 005°26'0 0.0
2014-Nov-22 13:33N 36°08' W 005°26'1 0.7
2014-Nov-22 12:33N 36°09' W 005°26'8 1.9
2014-Nov-22 08:33N 36°01' W 005°26'7 6.9
2014-Nov-22 07:33N 36°08' W 005°26'0 0.0
2014-Nov-22 06:33N 36°08' W 005°26'0 0.0
2014-Nov-22 05:15N 36°08' W 005°26'0 0.0
2014-Nov-22 04:31N 36°08' W 005°26'2 1.7
2014-Nov-22 03:32N 36°09' W 005°24'9 2.2
2014-Nov-21 23:33N 35°60' W 005°26'8 4.0
2014-Nov-21 21:32N 36°08' W 005°26'0 0.1
2014-Nov-21 20:33N 36°08' W 005°26'1110.7
2014-Nov-21 19:33N 35°57' W 005°27'3 0.7
2014-Nov-21 15:30N 35°56' W 005°31'1313.5
2014-Nov-21 14:33N 36°09' W 005°26'1 0.6
2014-Nov-21 13:33N 36°08' W 005°26'0 0.0
2014-Nov-21 12:32N 36°08' W 005°26'6 6.4
2014-Nov-21 11:34N 36°02' W 005°23'9 1.7
2014-Nov-21 06:11N 35°56' W 005°31'1015.4
2014-Nov-21 05:33N 36°04' W 005°23'5 4.7
2014-Nov-21 04:33N 36°08' W 005°26'0 0.1
2014-Nov-21 03:32N 36°08' W 005°26'9 9.3
2014-Nov-21 02:33N 35°59' W 005°25'2 0.8
2014-Nov-20 23:33N 35°59' W 005°28'9 9.2
2014-Nov-20 22:33N 36°08' W 005°26'0 0.0
2014-Nov-20 21:30N 36°08' W 005°26'0 0.1
2014-Nov-20 20:31N 36°08' W 005°26'8 8.1
2014-Nov-20 19:33N 36°01' W 005°23'3 0.8
2014-Nov-20 15:33N 35°59' W 005°27'9 8.6
2014-Nov-20 14:33N 36°08' W 005°26'0 0.0
2014-Nov-20 13:33N 36°08' W 005°26'0 0.0
2014-Nov-20 12:29N 36°08' W 005°26'5 5.0
2014-Nov-20 11:33N 36°04' W 005°23'9 1.8
2014-Nov-20 06:13N 35°56' W 005°30'1116.7
2014-Nov-20 05:33N 36°06' W 005°24'3 2.6
2014-Nov-20 04:31N 36°08' W 005°26'0 0.0
2014-Nov-20 03:32N 36°08' W 005°26'3 2.9
2014-Nov-20 02:34N 36°06' W 005°23'10 2.5
2014-Nov-19 22:33N 35°58' W 005°30'10 9.3
2014-Nov-19 21:27N 36°08' W 005°26'0 0.0
2014-Nov-19 20:11N 36°08' W 005°26'0 0.6
2014-Nov-19 19:33N 36°08' W 005°26'10 9.8
2014-Nov-19 18:33N 35°58' W 005°26'4 1.2
2014-Nov-19 15:27N 35°56' W 005°29'1213.8
2014-Nov-19 14:33N 36°09' W 005°26'1 0.6
2014-Nov-19 13:33N 36°08' W 005°26'0 0.0
2014-Nov-19 12:33N 36°08' W 005°26'6 6.2
2014-Nov-19 11:33N 36°02' W 005°23'8 2.0
2014-Nov-19 07:18N 35°56' W 005°30'1316.3
2014-Nov-19 06:31N 36°08' W 005°24'1 1.5
2014-Nov-19 05:33N 36°08' W 005°26'0 0.0
2014-Nov-19 04:33N 36°08' W 005°26'10 9.9
2014-Nov-19 03:33N 35°58' W 005°26'4 1.0
2014-Nov-19 00:05N 35°57' W 005°30'917.7
2014-Nov-18 23:33N 36°04' W 005°24'4 1.9
2014-Nov-18 21:28N 36°08' W 005°26'2 2.5
2014-Nov-18 20:34N 36°08' W 005°23'  
Track history (hours):
 
Tides and Currents Weather Stations Pressure Air Temp Water Temp Dewpoint Dewpoint Depression Visibility Wind Speed Wind Dir Waves Ship Positions

Borja

Last reported at 2014-Nov-28 16:33 UTC. Time now 2014-Nov-28 18:12 UTC.
Position N 36°00' W 005°26'.

Length 186 m; draft 5.8 m.

Type: Ship. MMSI: 247196400.

Date/timePositionNaut miles runAvg speedWind from/ knotsBaromVisibWave heightAir tempDewpointWater temp
2014-Nov-28 16:33N 36°00' W 005°26'8 7.9
2014-Nov-28 15:33N 36°08' W 005°26'0 0.0
2014-Nov-28 14:32N 36°08' W 005°26'0 0.0
2014-Nov-28 13:33N 36°08' W 005°26'2 2.0
2014-Nov-28 12:33N 36°08' W 005°24'12 1.6
2014-Nov-28 05:33N 35°57' W 005°29'1110.4
2014-Nov-28 04:31N 36°08' W 005°26'0 0.0
2014-Nov-28 03:31N 36°08' W 005°26'0 0.0
2014-Nov-28 02:31N 36°08' W 005°26'0 0.0
2014-Nov-28 01:33N 36°08' W 005°26'0 0.0
2014-Nov-28 00:33N 36°08' W 005°26'7 6.6
2014-Nov-27 23:34N 36°02' W 005°24'7 1.1
2014-Nov-27 17:08N 35°56' W 005°30'1017.0
2014-Nov-27 16:33N 36°05' W 005°24'4 3.4
2014-Nov-27 15:28N 36°08' W 005°26'0 0.0
2014-Nov-27 14:33N 36°08' W 005°26'0 0.0
2014-Nov-27 13:33N 36°08' W 005°26'2 1.9
2014-Nov-27 12:33N 36°09' W 005°24'13 2.5
2014-Nov-27 07:25N 35°56' W 005°30'1315.3
2014-Nov-27 06:34N 36°09' W 005°26'1 1.1
2014-Nov-27 05:33N 36°08' W 005°26'1 1.2
2014-Nov-27 04:31N 36°09' W 005°25'1212.1
2014-Nov-27 03:33N 35°57' W 005°27'2 0.8
2014-Nov-27 00:33N 35°60' W 005°26'8 3.6
2014-Nov-26 22:19N 36°08' W 005°26'0 0.0
2014-Nov-26 21:24N 36°08' W 005°26'2 2.2
2014-Nov-26 20:33N 36°08' W 005°24'12 2.9
2014-Nov-26 16:13N 35°56' W 005°30'1116.9
2014-Nov-26 15:34N 36°06' W 005°23'3 2.4
2014-Nov-26 14:14N 36°08' W 005°26'0 0.0
2014-Nov-26 13:33N 36°08' W 005°26'0 0.2
2014-Nov-26 12:33N 36°08' W 005°26'1010.5
2014-Nov-26 11:33N 35°58' W 005°26'3 0.6
2014-Nov-26 06:25N 35°56' W 005°30'1214.1
2014-Nov-26 05:33N 36°08' W 005°26'0 0.2
2014-Nov-26 04:33N 36°08' W 005°26'0 0.0
2014-Nov-26 03:33N 36°08' W 005°26'2 1.7
2014-Nov-26 02:33N 36°08' W 005°24'12 3.8
2014-Nov-25 23:17N 35°57' W 005°30'1115.8
2014-Nov-25 22:34N 36°07' W 005°24'2 1.9
2014-Nov-25 21:28N 36°08' W 005°26'0 0.0
2014-Nov-25 20:31N 36°08' W 005°26'1 1.4
2014-Nov-25 19:31N 36°09' W 005°25'1212.9
2014-Nov-25 18:33N 35°57' W 005°28'4 1.3
2014-Nov-25 15:34N 35°58' W 005°33'1211.5
2014-Nov-25 14:32N 36°08' W 005°26'0 0.3
2014-Nov-25 13:31N 36°08' W 005°26'0 0.4
2014-Nov-25 12:32N 36°08' W 005°26'1212.2
2014-Nov-25 11:33N 35°57' W 005°28'1 0.3
2014-Nov-25 06:33N 35°58' W 005°29'1010.2
2014-Nov-25 05:33N 36°08' W 005°26'0 0.0
2014-Nov-25 04:34N 36°08' W 005°26'0 0.0
2014-Nov-25 03:33N 36°08' W 005°26'3 2.9
2014-Nov-25 02:33N 36°07' W 005°23'12 2.9
2014-Nov-24 22:30N 35°56' W 005°30'1313.4
2014-Nov-24 21:33N 36°09' W 005°26'1 0.6
2014-Nov-24 20:28N 36°08' W 005°26'0 0.2
2014-Nov-24 19:34N 36°08' W 005°26'10 9.9
2014-Nov-24 18:33N 35°58' W 005°26'3 1.0
2014-Nov-24 15:19N 35°56' W 005°30'1317.1
2014-Nov-24 14:34N 36°09' W 005°25'1 1.0
2014-Nov-24 13:23N 36°08' W 005°26'1 0.6
2014-Nov-24 12:33N 36°08' W 005°26'1111.3
2014-Nov-24 11:33N 35°57' W 005°27'3 0.5
2014-Nov-24 06:07N 35°56' W 005°31'915.6
2014-Nov-24 05:33N 36°03' W 005°24'5 3.8
2014-Nov-24 04:13N 36°08' W 005°26'0 0.0
2014-Nov-24 03:13N 36°08' W 005°26'0 0.4
2014-Nov-24 02:33N 36°08' W 005°26'9 9.5
2014-Nov-24 01:33N 35°59' W 005°25'5 1.6
2014-Nov-23 22:31N 35°56' W 005°30'1212.9
2014-Nov-23 21:33N 36°08' W 005°26'0 0.2
2014-Nov-23 20:31N 36°08' W 005°26'0 0.3
2014-Nov-23 19:33N 36°08' W 005°26'1110.6
2014-Nov-23 18:34N 35°58' W 005°27'2 0.8
2014-Nov-23 15:33N 35°56' W 005°29'1211.7
2014-Nov-23 14:33N 36°08' W 005°26'0 0.0
2014-Nov-23 13:33N 36°08' W 005°26'0 0.0
2014-Nov-23 12:33N 36°08' W 005°26'0 0.2
2014-Nov-23 10:28N 36°08' W 005°26'0 0.0
2014-Nov-22 17:23N 36°08' W 005°26'0 0.0
2014-Nov-22 16:33N 36°08' W 005°26'0 0.3
2014-Nov-22 15:33N 36°08' W 005°26'0 0.0
2014-Nov-22 14:33N 36°08' W 005°26'0 0.0
2014-Nov-22 13:33N 36°08' W 005°26'1 0.7
2014-Nov-22 12:33N 36°09' W 005°26'8 1.9
2014-Nov-22 08:33N 36°01' W 005°26'7 6.9
2014-Nov-22 07:33N 36°08' W 005°26'0 0.0
2014-Nov-22 06:33N 36°08' W 005°26'0 0.0
2014-Nov-22 05:15N 36°08' W 005°26'0 0.0
2014-Nov-22 04:31N 36°08' W 005°26'2 1.7
2014-Nov-22 03:32N 36°09' W 005°24'9 2.2
2014-Nov-21 23:33N 35°60' W 005°26'8 4.0
2014-Nov-21 21:32N 36°08' W 005°26'0 0.1
2014-Nov-21 20:33N 36°08' W 005°26'1110.7
2014-Nov-21 19:33N 35°57' W 005°27'3 0.7
2014-Nov-21 15:30N 35°56' W 005°31'1313.5
2014-Nov-21 14:33N 36°09' W 005°26'1 0.6
2014-Nov-21 13:33N 36°08' W 005°26'0 0.0
2014-Nov-21 12:32N 36°08' W 005°26'6 6.4
2014-Nov-21 11:34N 36°02' W 005°23'9 1.7
2014-Nov-21 06:11N 35°56' W 005°31'1015.4
2014-Nov-21 05:33N 36°04' W 005°23'5 4.7
2014-Nov-21 04:33N 36°08' W 005°26'0 0.1
2014-Nov-21 03:32N 36°08' W 005°26'9 9.3
2014-Nov-21 02:33N 35°59' W 005°25'2 0.8
2014-Nov-20 23:33N 35°59' W 005°28'9 9.2
2014-Nov-20 22:33N 36°08' W 005°26'0 0.0
2014-Nov-20 21:30N 36°08' W 005°26'0 0.1
2014-Nov-20 20:31N 36°08' W 005°26'8 8.1
2014-Nov-20 19:33N 36°01' W 005°23'3 0.8
2014-Nov-20 15:33N 35°59' W 005°27'9 8.6
2014-Nov-20 14:33N 36°08' W 005°26'0 0.0
2014-Nov-20 13:33N 36°08' W 005°26'0 0.0
2014-Nov-20 12:29N 36°08' W 005°26'5 5.0
2014-Nov-20 11:33N 36°04' W 005°23'9 1.8
2014-Nov-20 06:13N 35°56' W 005°30'1116.7
2014-Nov-20 05:33N 36°06' W 005°24'3 2.6
2014-Nov-20 04:31N 36°08' W 005°26'0 0.0
2014-Nov-20 03:32N 36°08' W 005°26'3 2.9
2014-Nov-20 02:34N 36°06' W 005°23'10 2.5
2014-Nov-19 22:33N 35°58' W 005°30'10 9.3
2014-Nov-19 21:27N 36°08' W 005°26'0 0.0
2014-Nov-19 20:11N 36°08' W 005°26'0 0.6
2014-Nov-19 19:33N 36°08' W 005°26'10 9.8
2014-Nov-19 18:33N 35°58' W 005°26'4 1.2
2014-Nov-19 15:27N 35°56' W 005°29'1213.8
2014-Nov-19 14:33N 36°09' W 005°26'1 0.6
2014-Nov-19 13:33N 36°08' W 005°26'0 0.0
2014-Nov-19 12:33N 36°08' W 005°26'6 6.2
2014-Nov-19 11:33N 36°02' W 005°23'8 2.0
2014-Nov-19 07:18N 35°56' W 005°30'1316.3
2014-Nov-19 06:31N 36°08' W 005°24'1 1.5
2014-Nov-19 05:33N 36°08' W 005°26'0 0.0
2014-Nov-19 04:33N 36°08' W 005°26'10 9.9
2014-Nov-19 03:33N 35°58' W 005°26'4 1.0
2014-Nov-19 00:05N 35°57' W 005°30'917.7
2014-Nov-18 23:33N 36°04' W 005°24'4 1.9
2014-Nov-18 21:28N 36°08' W 005°26'2 2.5
2014-Nov-18 20:34N 36°08' W 005°23'  

Dump ship's entire track history